createdAt,value
2022-11-23T00:01:25.470Z,77.70
2022-11-23T00:03:55.076Z,70.70
2022-11-23T00:06:25.603Z,79.13
2022-11-23T00:08:54.972Z,82.13
2022-11-23T00:11:24.441Z,74.73
2022-11-23T00:13:53.112Z,73.57
2022-11-23T00:16:23.498Z,80.23
2022-11-23T00:18:53.928Z,82.50
2022-11-23T00:21:22.647Z,71.57
2022-11-23T00:23:52.449Z,73.60
2022-11-23T00:26:20.991Z,84.43
2022-11-23T00:28:49.304Z,76.23
2022-11-23T00:31:18.862Z,85.27
2022-11-23T00:33:50.421Z,80.57
2022-11-23T00:36:20.408Z,74.30
2022-11-23T00:38:49.360Z,79.77
2022-11-23T00:41:20.371Z,86.07
2022-11-23T00:43:48.768Z,77.70
2022-11-23T00:46:18.795Z,72.60
2022-11-23T00:48:48.016Z,80.53
2022-11-23T00:51:17.867Z,83.93
2022-11-23T00:53:45.990Z,81.37
2022-11-23T00:56:14.748Z,78.20
2022-11-23T00:58:44.083Z,82.93
2022-11-23T01:01:13.616Z,84.47
2022-11-23T01:03:44.310Z,85.67
2022-11-23T01:06:14.389Z,71.00
2022-11-23T01:08:42.587Z,90.37
2022-11-23T01:11:12.854Z,73.93
2022-11-23T01:13:43.676Z,83.00
2022-11-23T01:16:20.845Z,82.87
2022-11-23T01:18:53.744Z,74.83
2022-11-23T01:21:24.479Z,81.43
2022-11-23T01:23:52.593Z,74.97
2022-11-23T01:26:20.989Z,72.10
2022-11-23T01:28:50.788Z,73.53
2022-11-23T01:31:20.547Z,71.60
2022-11-23T01:33:49.071Z,75.23
2022-11-23T01:36:19.408Z,73.80
2022-11-23T01:38:48.825Z,67.00
2022-11-23T01:41:18.646Z,77.90
2022-11-23T01:43:47.509Z,75.53
2022-11-23T01:46:16.802Z,68.03
2022-11-23T01:48:48.618Z,75.20
2022-11-23T01:51:21.426Z,65.23
2022-11-23T01:53:52.486Z,73.53
2022-11-23T01:56:24.399Z,76.90
2022-11-23T01:58:55.495Z,77.37
2022-11-23T02:01:24.895Z,70.97
2022-11-23T02:03:54.507Z,67.60
2022-11-23T02:06:24.131Z,70.97
2022-11-23T02:08:52.450Z,66.73
2022-11-23T02:11:21.686Z,73.73
2022-11-23T02:13:51.794Z,68.93
2022-11-23T02:16:20.325Z,79.17
2022-11-23T02:18:52.074Z,80.70
2022-11-23T02:21:21.955Z,69.83
2022-11-23T02:23:56.611Z,76.33
2022-11-23T02:26:27.337Z,85.93
2022-11-23T02:29:02.104Z,77.53
2022-11-23T02:31:32.293Z,80.13
2022-11-23T02:34:00.333Z,74.80
2022-11-23T02:36:37.249Z,81.20
2022-11-23T02:39:13.028Z,81.13
2022-11-23T02:41:44.255Z,72.20
2022-11-23T02:44:24.094Z,68.63
2022-11-23T02:46:52.673Z,74.47
2022-11-23T02:49:20.672Z,64.97
2022-11-23T02:51:50.823Z,68.20
2022-11-23T02:54:18.835Z,73.17
2022-11-23T02:56:48.183Z,68.20
2022-11-23T02:59:16.242Z,63.40
2022-11-23T03:01:45.035Z,66.40
2022-11-23T03:04:14.681Z,79.03
2022-11-23T03:06:43.029Z,62.90
2022-11-23T03:09:11.518Z,69.83
2022-11-23T03:11:39.490Z,63.40
2022-11-23T03:14:09.010Z,61.40
2022-11-23T03:16:45.029Z,66.73
2022-11-23T03:19:13.575Z,54.97
2022-11-23T03:21:41.568Z,61.63
2022-11-23T03:24:09.585Z,60.97
2022-11-23T03:26:38.482Z,72.93
2022-11-23T03:29:12.729Z,62.93
2022-11-23T03:31:41.542Z,64.90
2022-11-23T03:34:13.540Z,65.60
2022-11-23T03:36:41.881Z,63.07
2022-11-23T03:39:10.371Z,63.80
2022-11-23T03:41:58.670Z,61.00
2022-11-23T03:44:34.008Z,72.47
2022-11-23T03:47:01.973Z,62.93
2022-11-23T03:49:30.610Z,64.20
2022-11-23T03:51:59.006Z,66.23
2022-11-23T03:54:28.730Z,69.00
2022-11-23T03:56:56.674Z,68.60
2022-11-23T03:59:24.689Z,67.63
2022-11-23T04:01:55.015Z,70.07
2022-11-23T04:04:27.372Z,73.10
2022-11-23T04:07:04.267Z,71.83
2022-11-23T04:09:36.063Z,73.27
2022-11-23T04:12:07.418Z,78.00
2022-11-23T04:14:38.075Z,69.10
2022-11-23T04:17:07.441Z,63.27
2022-11-23T04:19:35.517Z,77.53
2022-11-23T04:22:03.801Z,70.57
2022-11-23T04:24:37.379Z,68.67
2022-11-23T04:27:07.537Z,63.53
2022-11-23T04:29:35.558Z,61.70
2022-11-23T04:32:03.518Z,62.03
2022-11-23T04:34:33.208Z,60.50
2022-11-23T04:37:06.788Z,55.07
2022-11-23T04:39:39.836Z,52.13
2022-11-23T04:42:36.683Z,54.47
2022-11-23T04:45:05.207Z,52.07
2022-11-23T04:47:34.056Z,52.23
2022-11-23T04:50:08.481Z,60.63
2022-11-23T04:52:36.365Z,59.87
2022-11-23T04:55:09.302Z,59.87
2022-11-23T04:57:42.738Z,55.83
2022-11-23T05:00:11.901Z,59.67
2022-11-23T05:02:40.046Z,60.27
2022-11-23T05:05:28.584Z,61.40
2022-11-23T05:07:58.829Z,58.00
2022-11-23T05:10:37.876Z,55.20
2022-11-23T05:13:06.520Z,53.20
2022-11-23T05:15:34.548Z,58.47
2022-11-23T05:18:03.557Z,52.27
2022-11-23T05:20:33.606Z,52.43
2022-11-23T05:23:01.769Z,46.60
2022-11-23T05:25:31.569Z,52.77
2022-11-23T05:28:11.386Z,50.07
2022-11-23T05:30:51.650Z,49.53
2022-11-23T05:33:20.262Z,49.57
2022-11-23T05:35:49.845Z,43.87
2022-11-23T05:38:21.027Z,45.10
2022-11-23T05:40:49.191Z,42.27
2022-11-23T05:43:17.488Z,46.97
2022-11-23T05:45:45.637Z,50.53
2022-11-23T05:48:15.166Z,49.40
2022-11-23T05:50:58.602Z,42.33
2022-11-23T05:53:35.723Z,45.57
2022-11-23T05:56:16.929Z,40.03
2022-11-23T05:59:00.027Z,39.33
2022-11-23T06:01:28.035Z,34.73
2022-11-23T06:04:00.397Z,41.27
2022-11-23T06:06:33.481Z,37.47
2022-11-23T06:09:01.648Z,41.93
2022-11-23T06:11:31.323Z,42.87
2022-11-23T06:14:04.703Z,44.47
2022-11-23T06:16:33.404Z,46.20
2022-11-23T06:19:13.264Z,45.03
2022-11-23T06:21:48.969Z,39.40
2022-11-23T06:24:20.127Z,40.07
2022-11-23T06:26:57.182Z,43.50
2022-11-23T06:29:25.297Z,39.20
2022-11-23T06:31:54.412Z,40.27
2022-11-23T06:34:22.641Z,39.40
2022-11-23T06:36:52.171Z,45.00
2022-11-23T06:39:20.160Z,40.03
2022-11-23T06:41:49.402Z,40.07
2022-11-23T06:44:18.892Z,44.03
2022-11-23T06:46:46.882Z,49.33
2022-11-23T06:49:15.935Z,43.87
2022-11-23T06:51:47.194Z,43.27
2022-11-23T06:54:16.560Z,43.20
2022-11-23T06:56:44.457Z,45.23
2022-11-23T06:59:13.537Z,41.07
2022-11-23T07:01:41.530Z,45.17
2022-11-23T07:04:11.527Z,39.90
2022-11-23T07:06:47.402Z,40.37
2022-11-23T07:09:27.907Z,42.87
2022-11-23T07:12:16.186Z,42.93
2022-11-23T07:14:44.944Z,38.70
2022-11-23T07:17:17.306Z,42.00
2022-11-23T07:19:45.896Z,43.30
2022-11-23T07:22:13.953Z,46.90
2022-11-23T07:24:46.703Z,42.83
2022-11-23T07:27:15.058Z,46.70
2022-11-23T07:29:44.264Z,48.97
2022-11-23T07:32:14.916Z,47.67
2022-11-23T07:34:42.948Z,42.77
2022-11-23T07:37:11.284Z,45.37
2022-11-23T07:39:56.747Z,38.50
2022-11-23T07:42:41.489Z,44.57
2022-11-23T07:45:12.079Z,46.27
2022-11-23T07:47:44.699Z,44.50
2022-11-23T07:50:14.371Z,42.87
2022-11-23T07:52:42.295Z,42.10
2022-11-23T07:55:10.702Z,42.03
2022-11-23T07:57:39.981Z,43.80
2022-11-23T08:00:09.622Z,47.47
2022-11-23T08:02:57.951Z,43.97
2022-11-23T08:05:28.822Z,45.20
2022-11-23T08:08:00.117Z,43.47
2022-11-23T08:10:28.309Z,43.17
2022-11-23T08:12:59.746Z,46.30
2022-11-23T08:15:29.195Z,49.43
2022-11-23T08:17:57.219Z,44.13
2022-11-23T08:20:25.687Z,47.63
2022-11-23T08:22:55.875Z,44.27
2022-11-23T08:25:24.769Z,45.37
2022-11-23T08:27:56.369Z,50.87
2022-11-23T08:30:26.103Z,44.57
2022-11-23T08:32:54.178Z,39.97
2022-11-23T08:35:22.715Z,44.37
2022-11-23T08:37:50.684Z,41.27
2022-11-23T08:40:24.959Z,41.17
2022-11-23T08:42:53.690Z,36.53
2022-11-23T08:45:22.194Z,35.67
2022-11-23T08:47:53.063Z,37.90
2022-11-23T08:50:22.085Z,38.83
2022-11-23T08:52:55.196Z,41.07
2022-11-23T08:55:23.159Z,43.73
2022-11-23T08:57:51.471Z,38.93
2022-11-23T09:00:20.611Z,43.57
2022-11-23T09:02:48.673Z,41.57
2022-11-23T09:05:18.138Z,44.43
2022-11-23T09:07:46.140Z,45.73
2022-11-23T09:10:18.420Z,45.03
2022-11-23T09:12:48.022Z,40.73
2022-11-23T09:15:16.248Z,48.03
2022-11-23T09:17:44.253Z,40.20
2022-11-23T09:20:13.312Z,42.20
2022-11-23T09:22:42.617Z,40.50
2022-11-23T09:25:11.184Z,42.23
2022-11-23T09:27:39.128Z,40.07
2022-11-23T09:30:08.285Z,39.07
2022-11-23T09:32:36.246Z,42.40
2022-11-23T09:35:04.423Z,46.23
2022-11-23T09:37:32.338Z,48.43
2022-11-23T09:40:01.626Z,44.57
2022-11-23T09:42:53.296Z,44.43
2022-11-23T09:45:29.890Z,57.30
2022-11-23T09:48:28.921Z,53.47
2022-11-23T09:51:02.375Z,39.50
2022-11-23T09:53:35.177Z,47.83
2022-11-23T09:56:04.504Z,42.50
2022-11-23T09:58:38.752Z,44.77
2022-11-23T10:01:09.054Z,38.53
2022-11-23T10:03:45.400Z,42.10
2022-11-23T10:06:21.606Z,43.43
2022-11-23T10:09:01.780Z,41.40
2022-11-23T10:11:44.961Z,38.93
2022-11-23T10:14:32.408Z,40.37
2022-11-23T10:17:10.029Z,38.07
2022-11-23T10:19:54.060Z,43.27
2022-11-23T10:22:27.650Z,43.73
2022-11-23T10:25:02.562Z,44.93
2022-11-23T10:27:32.707Z,46.20
2022-11-23T10:30:01.381Z,47.67
2022-11-23T10:32:43.361Z,45.17
2022-11-23T10:35:14.275Z,47.83
2022-11-23T10:37:42.664Z,46.37
2022-11-23T10:40:18.092Z,45.83
2022-11-23T10:42:51.175Z,43.37
2022-11-23T10:45:24.627Z,42.47
2022-11-23T10:47:55.911Z,47.63
2022-11-23T10:50:27.597Z,45.13
2022-11-23T10:52:58.857Z,47.83
2022-11-23T10:55:30.156Z,52.93
2022-11-23T10:57:59.835Z,44.90
2022-11-23T11:00:31.169Z,52.50
2022-11-23T11:03:00.566Z,46.57
2022-11-23T11:06:06.931Z,47.23
2022-11-23T11:08:21.889Z,45.20
2022-11-23T11:10:51.037Z,48.00
2022-11-23T11:13:30.630Z,49.50
2022-11-23T11:16:00.963Z,52.53
2022-11-23T11:18:32.063Z,49.77
2022-11-23T11:21:04.189Z,53.07
2022-11-23T11:23:33.850Z,44.20
2022-11-23T11:26:08.883Z,51.67
2022-11-23T11:28:42.371Z,49.60
2022-11-23T11:31:31.160Z,48.87
2022-11-23T11:34:05.133Z,46.33
2022-11-23T11:36:38.736Z,47.03
2022-11-23T11:39:18.871Z,48.30
2022-11-23T11:41:50.655Z,46.87
2022-11-23T11:44:22.877Z,45.33
2022-11-23T11:46:57.775Z,42.03
2022-11-23T11:49:29.692Z,39.67
2022-11-23T11:52:04.514Z,41.73
2022-11-23T11:54:39.292Z,43.43
2022-11-23T11:57:18.271Z,39.80
2022-11-23T11:59:52.811Z,43.80
2022-11-23T12:02:25.317Z,48.77
2022-11-23T12:05:02.217Z,44.67
2022-11-23T12:07:33.209Z,45.77
2022-11-23T12:10:11.526Z,51.97
2022-11-23T12:12:40.777Z,47.40
2022-11-23T12:15:47.908Z,48.67
2022-11-23T12:18:38.295Z,57.30
2022-11-23T12:21:14.572Z,58.27
2022-11-23T12:23:53.630Z,57.53
2022-11-23T12:26:29.503Z,51.10
2022-11-23T12:29:25.059Z,50.13
2022-11-23T12:32:01.196Z,45.23
2022-11-23T12:34:45.167Z,47.20
2022-11-23T12:37:26.371Z,43.07
2022-11-23T12:40:29.825Z,49.20
2022-11-23T12:43:03.279Z,44.27
2022-11-23T12:45:51.367Z,45.73
2022-11-23T12:48:29.686Z,40.07
2022-11-23T12:51:06.463Z,44.33
2022-11-23T12:53:45.025Z,44.83
2022-11-23T12:56:21.336Z,43.17
2022-11-23T12:58:51.067Z,45.10
2022-11-23T13:01:26.344Z,45.90
2022-11-23T13:04:27.810Z,39.43
2022-11-23T13:07:30.328Z,41.93
2022-11-23T13:10:27.988Z,42.50
2022-11-23T13:13:15.678Z,43.50
2022-11-23T13:16:09.252Z,43.77
2022-11-23T13:19:02.993Z,45.10
2022-11-23T13:21:38.475Z,48.07
2022-11-23T13:24:24.885Z,54.13
2022-11-23T13:27:42.892Z,53.67
2022-11-23T13:30:25.215Z,45.70
2022-11-23T13:32:59.335Z,54.87
2022-11-23T13:36:00.073Z,49.07
2022-11-23T13:38:40.590Z,47.13
2022-11-23T13:41:57.558Z,48.63
2022-11-23T13:44:33.041Z,44.30
2022-11-23T13:47:20.012Z,48.17
2022-11-23T13:49:49.179Z,50.07
2022-11-23T13:52:27.967Z,55.53
2022-11-23T13:55:09.714Z,46.70
2022-11-23T13:57:39.202Z,43.97
2022-11-23T14:00:49.416Z,56.07
2022-11-23T14:03:47.783Z,48.30
2022-11-23T14:06:21.373Z,55.10
2022-11-23T14:08:51.257Z,51.10
2022-11-23T14:11:23.570Z,58.27
2022-11-23T14:13:56.320Z,58.83
2022-11-23T14:16:54.134Z,62.17
2022-11-23T14:19:28.422Z,59.17
2022-11-23T14:22:03.513Z,63.23
2022-11-23T14:24:51.196Z,63.50
2022-11-23T14:27:47.166Z,51.43
2022-11-23T14:30:42.118Z,59.23
2022-11-23T14:33:30.318Z,58.80
2022-11-23T14:36:13.910Z,67.67
2022-11-23T14:39:19.461Z,60.77
2022-11-23T14:41:53.271Z,59.43
2022-11-23T14:44:26.088Z,59.53
2022-11-23T14:47:04.504Z,58.60
2022-11-23T14:49:33.911Z,63.33
2022-11-23T14:52:04.228Z,58.80
2022-11-23T14:54:33.168Z,61.60
2022-11-23T14:57:03.910Z,69.57
2022-11-23T14:59:35.520Z,59.17
2022-11-23T15:02:05.698Z,92.87
2022-11-23T15:04:40.974Z,89.23
2022-11-23T15:07:14.399Z,68.83
2022-11-23T15:09:51.618Z,70.60
2022-11-23T15:12:23.369Z,66.00
2022-11-23T15:14:51.636Z,67.97
2022-11-23T15:17:21.401Z,67.97
2022-11-23T15:20:01.455Z,73.57
2022-11-23T15:22:31.205Z,64.40
2022-11-23T15:25:08.063Z,59.93
2022-11-23T15:27:40.976Z,70.13
2022-11-23T15:30:16.612Z,67.17
2022-11-23T15:32:44.845Z,71.07
2022-11-23T15:35:16.448Z,70.93
2022-11-23T15:37:46.992Z,70.63
2022-11-23T15:40:17.003Z,67.60
2022-11-23T15:42:46.238Z,75.70
2022-11-23T15:45:57.003Z,78.43
2022-11-23T15:48:30.127Z,77.87
2022-11-23T15:51:01.066Z,85.37
2022-11-23T15:53:30.691Z,92.00
2022-11-23T15:56:01.554Z,86.73
2022-11-23T15:58:30.339Z,97.33
2022-11-23T16:01:07.412Z,88.67
2022-11-23T16:03:42.289Z,88.27
2022-11-23T16:06:17.541Z,85.57
2022-11-23T16:08:46.753Z,84.17
2022-11-23T16:11:23.576Z,91.30
2022-11-23T16:13:51.611Z,85.63
2022-11-23T16:16:23.191Z,94.80
2022-11-23T16:18:56.746Z,86.40
2022-11-23T16:21:26.462Z,85.50
2022-11-23T16:23:56.717Z,85.73
2022-11-23T16:26:31.266Z,87.93
2022-11-23T16:29:00.669Z,77.53
2022-11-23T16:31:30.205Z,74.37
2022-11-23T16:33:58.289Z,85.50
2022-11-23T16:36:29.729Z,86.23
2022-11-23T16:39:01.025Z,95.03
2022-11-23T16:41:32.055Z,80.90
2022-11-23T16:44:00.032Z,78.37
2022-11-23T16:46:28.017Z,76.93
2022-11-23T16:48:57.433Z,79.77
2022-11-23T16:51:25.811Z,85.00
2022-11-23T16:54:13.029Z,90.73
2022-11-23T16:56:42.288Z,86.20
2022-11-23T16:59:17.035Z,82.30
2022-11-23T17:01:46.834Z,87.10
2022-11-23T17:04:17.173Z,88.00
2022-11-23T17:06:45.266Z,89.13
2022-11-23T17:09:14.568Z,85.27
2022-11-23T17:11:45.980Z,77.93
2022-11-23T17:14:18.861Z,88.23
2022-11-23T17:16:48.207Z,70.10
2022-11-23T17:19:17.164Z,70.30
2022-11-23T17:21:45.232Z,67.90
2022-11-23T17:24:15.190Z,74.93
2022-11-23T17:26:46.388Z,83.93
2022-11-23T17:29:18.945Z,70.20
2022-11-23T17:31:47.142Z,64.33
2022-11-23T17:34:16.053Z,68.93
2022-11-23T17:36:45.351Z,75.30
2022-11-23T17:39:19.927Z,97.53
2022-11-23T17:41:49.066Z,68.03
2022-11-23T17:44:17.533Z,66.77
2022-11-23T17:46:46.871Z,78.17
2022-11-23T17:49:16.988Z,77.90
2022-11-23T17:51:44.924Z,80.47
2022-11-23T17:54:12.871Z,78.53
2022-11-23T17:56:42.205Z,77.70
2022-11-23T17:59:10.142Z,86.07
2022-11-23T18:01:38.477Z,85.23
2022-11-23T18:04:06.734Z,80.87
2022-11-23T18:06:34.816Z,79.80
2022-11-23T18:09:02.775Z,78.70
2022-11-23T18:11:30.696Z,79.47
2022-11-23T18:14:00.227Z,80.50
2022-11-23T18:16:28.112Z,81.97
2022-11-23T18:18:56.201Z,74.40
2022-11-23T18:21:24.399Z,80.60
2022-11-23T18:23:52.328Z,75.63
2022-11-23T18:26:21.760Z,75.97
2022-11-23T18:28:50.387Z,68.37
2022-11-23T18:31:20.709Z,64.73
2022-11-23T18:33:49.243Z,66.40
2022-11-23T18:36:17.275Z,60.07
2022-11-23T18:38:45.859Z,79.23
2022-11-23T18:41:16.359Z,78.40
2022-11-23T18:43:44.557Z,93.20
2022-11-23T18:46:19.523Z,74.43
2022-11-23T18:48:50.266Z,86.67
2022-11-23T18:51:19.422Z,86.23
2022-11-23T18:53:47.905Z,82.10
2022-11-23T18:56:16.167Z,76.03
2022-11-23T18:58:45.381Z,74.30
2022-11-23T19:01:15.806Z,81.17
2022-11-23T19:03:44.095Z,75.90
2022-11-23T19:06:14.718Z,81.40
2022-11-23T19:08:44.114Z,74.97
2022-11-23T19:11:16.357Z,78.97
2022-11-23T19:13:44.821Z,80.23
2022-11-23T19:16:14.441Z,75.63
2022-11-23T19:18:42.951Z,83.90
2022-11-23T19:21:17.395Z,71.13
2022-11-23T19:23:45.911Z,82.33
2022-11-23T19:26:13.869Z,80.53
2022-11-23T19:28:44.779Z,72.93
2022-11-23T19:31:14.152Z,74.07
2022-11-23T19:33:42.492Z,67.40
2022-11-23T19:36:12.939Z,64.27
2022-11-23T19:38:42.781Z,75.97
2022-11-23T19:41:11.173Z,77.70
2022-11-23T19:43:39.317Z,68.17
2022-11-23T19:46:08.789Z,73.30
2022-11-23T19:48:36.712Z,70.10
2022-11-23T19:51:07.123Z,75.33
2022-11-23T19:53:36.310Z,80.43
2022-11-23T19:56:07.646Z,81.97
2022-11-23T19:58:35.869Z,84.50
2022-11-23T20:01:05.884Z,85.13
2022-11-23T20:03:36.234Z,82.20
2022-11-23T20:06:06.717Z,80.40
2022-11-23T20:08:34.806Z,73.23
2022-11-23T20:11:09.230Z,72.20
2022-11-23T20:13:37.714Z,69.73
2022-11-23T20:16:06.838Z,69.33
2022-11-23T20:18:34.945Z,77.30
2022-11-23T20:21:03.121Z,72.30
2022-11-23T20:23:31.119Z,62.20
2022-11-23T20:25:59.664Z,76.73
2022-11-23T20:28:28.999Z,62.03
2022-11-23T20:30:57.070Z,70.77
2022-11-23T20:33:25.023Z,80.43
2022-11-23T20:35:53.060Z,71.23
2022-11-23T20:38:21.162Z,65.90
2022-11-23T20:40:49.080Z,77.67
2022-11-23T20:43:17.226Z,76.63
2022-11-23T20:45:46.500Z,77.50
2022-11-23T20:48:14.410Z,74.10
2022-11-23T20:50:42.549Z,72.43
2022-11-23T20:53:10.544Z,82.80
2022-11-23T20:55:38.490Z,74.70
2022-11-23T20:58:06.736Z,74.33
2022-11-23T21:00:34.673Z,82.63
2022-11-23T21:03:04.206Z,72.13
2022-11-23T21:05:32.240Z,74.93
2022-11-23T21:08:01.356Z,79.90
2022-11-23T21:10:46.746Z,80.93
2022-11-23T21:13:48.502Z,83.03
2022-11-23T21:16:17.447Z,81.27
2022-11-23T21:18:46.803Z,74.23
2022-11-23T21:21:14.774Z,74.27
2022-11-23T21:23:42.761Z,72.40
2022-11-23T21:26:10.694Z,67.40
2022-11-23T21:28:38.667Z,67.77
2022-11-23T21:31:08.601Z,79.90
2022-11-23T21:33:37.226Z,73.87
2022-11-23T21:36:07.874Z,78.47
2022-11-23T21:38:36.728Z,64.63
2022-11-23T21:41:07.071Z,68.20
2022-11-23T21:43:35.110Z,68.90
2022-11-23T21:46:04.386Z,72.17
2022-11-23T21:48:32.654Z,74.30
2022-11-23T21:51:01.710Z,74.70
2022-11-23T21:53:31.815Z,71.70
2022-11-23T21:56:04.326Z,75.13
2022-11-23T21:58:32.563Z,72.23
2022-11-23T22:01:05.445Z,69.23
2022-11-23T22:03:37.734Z,80.77
2022-11-23T22:06:06.616Z,71.13
2022-11-23T22:08:40.498Z,68.30
2022-11-23T22:11:11.749Z,69.93
2022-11-23T22:13:42.717Z,59.80
2022-11-23T22:16:19.236Z,61.67
2022-11-23T22:18:54.021Z,59.60
2022-11-23T22:21:25.590Z,58.30
2022-11-23T22:23:55.496Z,58.13
2022-11-23T22:26:23.847Z,60.37
2022-11-23T22:28:52.662Z,62.80
2022-11-23T22:31:22.764Z,58.23
2022-11-23T22:33:51.152Z,53.47
2022-11-23T22:36:20.622Z,56.67
2022-11-23T22:38:49.628Z,64.67
2022-11-23T22:41:19.106Z,64.63
2022-11-23T22:43:47.486Z,72.70
2022-11-23T22:46:18.118Z,69.73
2022-11-23T22:48:48.976Z,76.50
2022-11-23T22:51:19.765Z,70.87
2022-11-23T22:53:48.193Z,70.63
2022-11-23T22:56:19.509Z,59.73
2022-11-23T22:58:48.537Z,64.17
2022-11-23T23:01:18.424Z,56.40
2022-11-23T23:03:47.192Z,56.03
2022-11-23T23:06:17.337Z,51.23
2022-11-23T23:08:45.843Z,50.27
2022-11-23T23:11:14.749Z,48.20
2022-11-23T23:13:44.173Z,47.83
2022-11-23T23:16:13.957Z,50.40
2022-11-23T23:18:42.717Z,47.07
2022-11-23T23:21:14.304Z,52.73
2022-11-23T23:23:47.393Z,52.27
2022-11-23T23:26:17.223Z,49.90
2022-11-23T23:28:48.104Z,53.73
2022-11-23T23:31:17.696Z,65.13
2022-11-23T23:33:46.590Z,70.27
2022-11-23T23:36:16.224Z,64.37
2022-11-23T23:38:44.692Z,66.03
2022-11-23T23:41:14.221Z,72.13
2022-11-23T23:43:42.678Z,64.87
2022-11-23T23:46:13.854Z,67.07
2022-11-23T23:48:42.409Z,67.40
2022-11-23T23:51:12.340Z,63.13
2022-11-23T23:53:41.258Z,66.33
2022-11-23T23:56:14.471Z,68.77
2022-11-23T23:58:42.966Z,55.10
